Terminal Aerodrome Forecast
Issued by NWS Sioux Falls, SD

Home | Current Version | Previous Version | Graphics & Text | Print | Product List | Glossary Off
Versions: 1 2 3 4 5 6 7 8 9 10 11 12 13 14 15 16 17

637
FTUS43 KFSD 181722
TAFHON
TAF
KHON 181722Z 1818/1918 24010KT P6SM SCT200
     FM182000 24013G22KT P6SM BKN200
     FM182300 24008KT P6SM BKN250
     FM190500 28008KT P6SM SCT080
     FM190800 31007KT P6SM SCT050
     FM191200 30007KT P6SM FEW150=

USA.gov is the U.S. government's official web portal to all federal, state and local government web resources and services.